createdAt,value
2018-08-27T00:00:51.390Z,15.03
2018-08-27T00:01:51.387Z,15.00
2018-08-27T00:02:51.371Z,15.03
2018-08-27T00:03:51.367Z,15.04
2018-08-27T00:04:51.354Z,15.07
2018-08-27T00:05:51.347Z,14.87
2018-08-27T00:06:51.342Z,14.90
2018-08-27T00:07:51.333Z,14.93
2018-08-27T00:08:51.318Z,14.95
2018-08-27T00:09:51.314Z,14.97
2018-08-27T00:10:51.304Z,15.00
2018-08-27T00:11:51.298Z,14.94
2018-08-27T00:12:51.287Z,14.94
2018-08-27T00:13:51.278Z,14.93
2018-08-27T00:14:51.269Z,14.93
2018-08-27T00:15:51.261Z,15.00
2018-08-27T00:16:51.252Z,14.98
2018-08-27T00:17:51.243Z,14.97
2018-08-27T00:18:51.235Z,14.83
2018-08-27T00:19:51.225Z,14.82
2018-08-27T00:20:51.222Z,14.79
2018-08-27T00:21:51.208Z,14.83
2018-08-27T00:22:51.219Z,14.72
2018-08-27T00:23:51.197Z,14.71
2018-08-27T00:24:51.184Z,14.72
2018-08-27T00:25:51.174Z,14.75
2018-08-27T00:26:51.169Z,14.72
2018-08-27T00:27:51.157Z,14.74
2018-08-27T00:28:51.146Z,14.79
2018-08-27T00:29:51.145Z,14.75
2018-08-27T00:30:51.134Z,14.82
2018-08-27T00:31:51.121Z,14.79
2018-08-27T00:32:51.118Z,14.69
2018-08-27T00:33:51.107Z,14.86
2018-08-27T00:34:51.101Z,14.85
2018-08-27T00:35:51.086Z,14.75
2018-08-27T00:36:51.084Z,14.83
2018-08-27T00:37:51.076Z,14.80
2018-08-27T00:38:51.060Z,14.78
2018-08-27T00:39:51.058Z,14.83
2018-08-27T00:40:51.045Z,14.91
2018-08-27T00:41:51.038Z,14.80
2018-08-27T00:42:51.029Z,14.85
2018-08-27T00:43:51.017Z,14.93
2018-08-27T00:44:51.008Z,14.95
2018-08-27T00:45:51.001Z,14.79
2018-08-27T00:46:50.997Z,14.80
2018-08-27T00:47:50.984Z,14.85
2018-08-27T00:48:51.029Z,14.85
2018-08-27T00:49:50.967Z,14.82
2018-08-27T00:50:50.968Z,14.82
2018-08-27T00:51:50.951Z,14.80
2018-08-27T00:52:50.940Z,14.79
2018-08-27T00:53:50.934Z,14.78
2018-08-27T00:54:50.933Z,14.79
2018-08-27T00:55:50.916Z,14.85
2018-08-27T00:56:50.908Z,14.79
2018-08-27T00:57:50.902Z,14.79
2018-08-27T00:58:50.896Z,14.75
2018-08-27T00:59:50.878Z,14.75
2018-08-27T01:00:50.871Z,14.71
2018-08-27T01:01:50.915Z,14.74
2018-08-27T01:02:50.860Z,14.75
2018-08-27T01:03:50.850Z,14.78
2018-08-27T01:04:50.838Z,14.75
2018-08-27T01:05:50.827Z,14.83
2018-08-27T01:06:50.825Z,14.79
2018-08-27T01:07:50.808Z,14.75
2018-08-27T01:08:50.802Z,14.71
2018-08-27T01:09:50.798Z,14.79
2018-08-27T01:10:50.783Z,14.82
2018-08-27T01:11:50.781Z,14.71
2018-08-27T01:12:50.769Z,14.80
2018-08-27T01:13:50.763Z,14.83
2018-08-27T01:14:50.750Z,14.74
2018-08-27T01:15:50.746Z,14.78
2018-08-27T01:16:50.732Z,14.69
2018-08-27T01:17:50.726Z,14.72
2018-08-27T01:18:50.717Z,14.72
2018-08-27T01:19:50.708Z,14.79
2018-08-27T01:20:50.695Z,14.66
2018-08-27T01:21:50.691Z,14.72
2018-08-27T01:22:50.679Z,14.79
2018-08-27T01:23:50.676Z,14.79
2018-08-27T01:24:50.672Z,14.80
2018-08-27T01:25:50.656Z,14.78
2018-08-27T01:26:50.644Z,14.79
2018-08-27T01:27:50.636Z,14.72
2018-08-27T01:28:50.627Z,14.78
2018-08-27T01:29:50.618Z,14.78
2018-08-27T01:30:50.609Z,14.79
2018-08-27T01:31:50.605Z,14.78
2018-08-27T01:32:50.591Z,14.79
2018-08-27T01:33:50.586Z,14.79
2018-08-27T01:34:50.582Z,14.75
2018-08-27T01:35:50.565Z,14.71
2018-08-27T01:36:50.569Z,14.74
2018-08-27T01:37:50.557Z,14.80
2018-08-27T01:38:50.545Z,14.74
2018-08-27T01:39:50.533Z,14.79
2018-08-27T01:40:50.522Z,14.67
2018-08-27T01:41:50.513Z,14.75
2018-08-27T01:42:50.514Z,14.69
2018-08-27T01:43:50.497Z,14.80
2018-08-27T01:44:50.489Z,14.71
2018-08-27T01:45:50.484Z,14.78
2018-08-27T01:46:50.476Z,14.80
2018-08-27T01:47:50.462Z,14.75
2018-08-27T01:48:50.452Z,14.79
2018-08-27T01:49:50.444Z,14.79
2018-08-27T01:50:50.435Z,14.72
2018-08-27T01:51:50.430Z,14.69
2018-08-27T01:52:50.421Z,14.69
2018-08-27T01:53:50.413Z,14.71
2018-08-27T01:54:50.403Z,14.79
2018-08-27T01:55:50.392Z,14.72
2018-08-27T01:56:50.387Z,14.67
2018-08-27T01:57:50.375Z,14.72
2018-08-27T01:58:50.369Z,14.72
2018-08-27T01:59:50.357Z,14.69
2018-08-27T02:00:50.350Z,14.75
2018-08-27T02:01:50.342Z,14.75
2018-08-27T02:02:50.339Z,14.80
2018-08-27T02:03:50.326Z,14.80
2018-08-27T02:04:50.320Z,14.80
2018-08-27T02:05:50.326Z,14.83
2018-08-27T02:06:50.297Z,14.79
2018-08-27T02:07:50.295Z,14.78
2018-08-27T02:08:50.280Z,14.79
2018-08-27T02:09:50.274Z,14.74
2018-08-27T02:10:50.262Z,14.80
2018-08-27T02:11:50.255Z,14.85
2018-08-27T02:12:50.251Z,14.69
2018-08-27T02:13:50.242Z,14.90
2018-08-27T02:14:50.227Z,14.72
2018-08-27T02:15:50.223Z,14.78
2018-08-27T02:16:50.210Z,14.72
2018-08-27T02:17:50.204Z,14.80
2018-08-27T02:18:50.200Z,14.80
2018-08-27T02:19:50.190Z,14.79
2018-08-27T02:20:50.179Z,14.85
2018-08-27T02:21:50.167Z,14.75
2018-08-27T02:22:50.160Z,14.87
2018-08-27T02:23:50.148Z,14.95
2018-08-27T02:24:50.142Z,14.94
2018-08-27T02:25:50.138Z,14.93
2018-08-27T02:26:50.129Z,14.93
2018-08-27T02:27:50.120Z,14.97
2018-08-27T02:28:50.106Z,14.94
2018-08-27T02:29:50.099Z,14.95
2018-08-27T02:30:50.096Z,14.91
2018-08-27T02:31:50.091Z,14.95
2018-08-27T02:32:50.077Z,14.83
2018-08-27T02:33:50.072Z,14.91
2018-08-27T02:34:50.059Z,14.95
2018-08-27T02:35:50.051Z,14.83
2018-08-27T02:36:50.049Z,14.94
2018-08-27T02:37:50.028Z,14.93
2018-08-27T02:38:50.031Z,14.80
2018-08-27T02:39:50.018Z,14.74
2018-08-27T02:40:50.003Z,14.80
2018-08-27T02:41:49.993Z,14.80
2018-08-27T02:42:49.988Z,14.87
2018-08-27T02:43:49.980Z,14.93
2018-08-27T02:44:49.974Z,14.95
2018-08-27T02:45:49.961Z,14.95
2018-08-27T02:46:49.958Z,14.94
2018-08-27T02:47:49.945Z,14.95
2018-08-27T02:48:49.935Z,14.95
2018-08-27T02:49:49.925Z,14.91
2018-08-27T02:50:49.930Z,14.93
2018-08-27T02:51:49.919Z,14.95
2018-08-27T02:52:49.911Z,14.90
2018-08-27T02:53:49.895Z,14.97
2018-08-27T02:54:49.887Z,14.95
2018-08-27T02:55:49.879Z,14.95
2018-08-27T02:56:49.867Z,14.98
2018-08-27T02:57:49.861Z,14.86
2018-08-27T02:58:49.935Z,14.90
2018-08-27T02:59:49.840Z,14.85
2018-08-27T03:00:49.835Z,14.94
2018-08-27T03:01:49.832Z,14.94
2018-08-27T03:02:49.812Z,14.86
2018-08-27T03:03:49.807Z,14.82
2018-08-27T03:04:49.795Z,14.82
2018-08-27T03:05:49.884Z,14.79
2018-08-27T03:06:49.779Z,14.87
2018-08-27T03:07:49.770Z,14.80
2018-08-27T03:08:49.762Z,14.86
2018-08-27T03:09:49.836Z,14.85
2018-08-27T03:10:49.751Z,14.80
2018-08-27T03:11:49.742Z,14.80
2018-08-27T03:12:49.797Z,14.86
2018-08-27T03:13:49.717Z,14.82
2018-08-27T03:14:49.728Z,14.83
2018-08-27T03:15:49.701Z,14.82
2018-08-27T03:16:49.772Z,14.78
2018-08-27T03:17:49.683Z,14.80
2018-08-27T03:18:49.677Z,14.86
2018-08-27T03:19:49.666Z,14.80
2018-08-27T03:20:49.699Z,14.91
2018-08-27T03:21:49.651Z,14.93
2018-08-27T03:22:49.644Z,15.01
2018-08-27T03:23:49.721Z,14.97
2018-08-27T03:24:49.673Z,14.91
2018-08-27T03:25:49.614Z,14.95
2018-08-27T03:26:49.612Z,14.97
2018-08-27T03:27:49.601Z,14.90
2018-08-27T03:28:49.589Z,14.93
2018-08-27T03:29:49.587Z,14.97
2018-08-27T03:30:49.572Z,14.91
2018-08-27T03:31:49.565Z,14.94
2018-08-27T03:32:49.587Z,14.90
2018-08-27T03:33:49.548Z,14.95
2018-08-27T03:34:49.537Z,14.78
2018-08-27T03:35:49.529Z,14.80
2018-08-27T03:36:49.525Z,14.97
2018-08-27T03:37:49.517Z,14.90
2018-08-27T03:38:49.502Z,14.91
2018-08-27T03:39:49.495Z,14.94
2018-08-27T03:40:49.556Z,14.94
2018-08-27T03:41:49.480Z,14.79
2018-08-27T03:42:49.468Z,14.87
2018-08-27T03:43:49.461Z,14.94
2018-08-27T03:44:49.456Z,14.80
2018-08-27T03:45:49.448Z,14.79
2018-08-27T03:46:49.434Z,14.86
2018-08-27T03:47:49.431Z,14.75
2018-08-27T03:48:49.420Z,14.85
2018-08-27T03:49:49.412Z,14.79
2018-08-27T03:50:49.398Z,14.93
2018-08-27T03:51:49.392Z,14.97
2018-08-27T03:52:49.384Z,14.97
2018-08-27T03:53:49.374Z,14.95
2018-08-27T03:54:49.365Z,14.86
2018-08-27T03:55:49.363Z,14.82
2018-08-27T03:56:49.354Z,14.83
2018-08-27T03:57:49.342Z,14.75
2018-08-27T03:58:49.337Z,14.82
2018-08-27T03:59:49.326Z,14.83
2018-08-27T04:00:49.311Z,14.80
2018-08-27T04:01:49.303Z,14.83
2018-08-27T04:02:49.300Z,14.90
2018-08-27T04:03:49.286Z,14.95
2018-08-27T04:04:49.283Z,14.98
2018-08-27T04:05:49.269Z,14.93
2018-08-27T04:06:49.263Z,15.05
2018-08-27T04:07:49.254Z,15.05
2018-08-27T04:08:49.242Z,15.07
2018-08-27T04:09:49.239Z,15.15
2018-08-27T04:10:49.229Z,15.11
2018-08-27T04:11:49.218Z,15.05
2018-08-27T04:12:49.207Z,15.01
2018-08-27T04:13:49.201Z,14.93
2018-08-27T04:14:49.192Z,14.97
2018-08-27T04:15:49.183Z,14.95
2018-08-27T04:16:49.173Z,15.04
2018-08-27T04:17:49.163Z,15.01
2018-08-27T04:18:49.157Z,15.01
2018-08-27T04:19:49.145Z,14.95
2018-08-27T04:20:49.135Z,15.01
2018-08-27T04:21:49.126Z,14.93
2018-08-27T04:22:49.121Z,14.98
2018-08-27T04:23:49.109Z,14.98
2018-08-27T04:24:49.106Z,14.93
2018-08-27T04:25:49.094Z,14.98
2018-08-27T04:26:49.083Z,14.91
2018-08-27T04:27:49.082Z,14.98
2018-08-27T04:28:49.144Z,14.94
2018-08-27T04:29:49.064Z,14.90
2018-08-27T04:30:49.053Z,15.01
2018-08-27T04:31:49.039Z,14.98
2018-08-27T04:32:49.030Z,14.97
2018-08-27T04:33:49.021Z,14.97
2018-08-27T04:34:49.063Z,14.90
2018-08-27T04:35:49.005Z,14.91
2018-08-27T04:36:48.999Z,14.90
2018-08-27T04:37:48.987Z,15.04
2018-08-27T04:38:48.985Z,14.98
2018-08-27T04:39:48.973Z,15.12
2018-08-27T04:40:48.960Z,15.09
2018-08-27T04:41:48.955Z,15.15
2018-08-27T04:42:48.947Z,15.18
2018-08-27T04:43:48.943Z,15.15
2018-08-27T04:44:48.932Z,15.07
2018-08-27T04:45:48.925Z,15.12
2018-08-27T04:46:48.914Z,15.16
2018-08-27T04:47:48.911Z,15.19
2018-08-27T04:48:48.892Z,15.11
2018-08-27T04:49:48.886Z,15.18
2018-08-27T04:50:48.877Z,15.12
2018-08-27T04:51:48.871Z,15.15
2018-08-27T04:52:48.858Z,15.15
2018-08-27T04:53:48.850Z,15.16
2018-08-27T04:54:48.839Z,15.18
2018-08-27T04:55:48.838Z,15.07
2018-08-27T04:56:48.827Z,15.12
2018-08-27T04:57:48.814Z,15.09
2018-08-27T04:58:48.805Z,15.09
2018-08-27T04:59:48.804Z,15.12
2018-08-27T05:00:48.788Z,15.01
2018-08-27T05:01:48.778Z,15.01
2018-08-27T05:02:48.778Z,15.07
2018-08-27T05:03:48.767Z,15.12
2018-08-27T05:04:48.754Z,15.15
2018-08-27T05:05:48.749Z,15.15
2018-08-27T05:06:48.741Z,15.18
2018-08-27T05:07:48.729Z,15.15
2018-08-27T05:08:48.728Z,15.18
2018-08-27T05:09:48.718Z,15.18
2018-08-27T05:10:48.702Z,15.16
2018-08-27T05:11:48.697Z,15.20
2018-08-27T05:12:48.686Z,15.22
2018-08-27T05:13:48.683Z,15.20
2018-08-27T05:14:48.672Z,15.31
2018-08-27T05:15:48.665Z,15.28
2018-08-27T05:16:48.653Z,15.35
2018-08-27T05:17:48.648Z,15.34
2018-08-27T05:18:48.641Z,15.38
2018-08-27T05:19:48.629Z,15.41
2018-08-27T05:20:48.617Z,15.46
2018-08-27T05:21:48.611Z,15.46
2018-08-27T05:22:48.600Z,15.49
2018-08-27T05:23:48.595Z,15.48
2018-08-27T05:24:48.583Z,15.51
2018-08-27T05:25:48.577Z,15.53
2018-08-27T05:26:48.572Z,15.43
2018-08-27T05:27:48.563Z,15.59
2018-08-27T05:28:48.549Z,15.48
2018-08-27T05:29:48.544Z,15.56
2018-08-27T05:30:48.550Z,15.59
2018-08-27T05:31:48.531Z,15.64
2018-08-27T05:32:48.521Z,15.66
2018-08-27T05:33:48.508Z,15.58
2018-08-27T05:34:48.500Z,15.71
2018-08-27T05:35:48.494Z,15.66
2018-08-27T05:36:48.484Z,15.68
2018-08-27T05:37:48.472Z,15.73
2018-08-27T05:38:48.468Z,15.71
2018-08-27T05:39:48.457Z,15.73
2018-08-27T05:40:48.458Z,15.84
2018-08-27T05:41:48.442Z,15.88
2018-08-27T05:42:48.433Z,15.88
2018-08-27T05:43:48.427Z,15.89
2018-08-27T05:44:48.420Z,15.86
2018-08-27T05:45:48.412Z,15.95
2018-08-27T05:46:48.403Z,15.99
2018-08-27T05:47:48.504Z,15.96
2018-08-27T05:48:48.388Z,15.93
2018-08-27T05:49:48.374Z,15.95
2018-08-27T05:50:48.370Z,15.98
2018-08-27T05:51:48.362Z,16.06
2018-08-27T05:52:48.347Z,16.03
2018-08-27T05:53:48.343Z,16.14
2018-08-27T05:54:48.340Z,16.11
2018-08-27T05:55:48.324Z,16.10
2018-08-27T05:56:48.316Z,16.18
2018-08-27T05:57:48.305Z,16.32
2018-08-27T05:58:48.301Z,16.30
2018-08-27T05:59:48.297Z,16.40
2018-08-27T06:00:48.286Z,16.40
2018-08-27T06:01:48.358Z,16.37
2018-08-27T06:02:48.270Z,16.45
2018-08-27T06:03:48.259Z,16.45
2018-08-27T06:04:48.254Z,16.73
2018-08-27T06:05:48.249Z,16.72
2018-08-27T06:06:48.241Z,16.75
2018-08-27T06:07:48.226Z,16.69
2018-08-27T06:08:48.225Z,16.72
2018-08-27T06:09:48.278Z,16.80
2018-08-27T06:10:48.209Z,16.81
2018-08-27T06:11:48.197Z,16.82
2018-08-27T06:12:48.187Z,16.88
2018-08-27T06:13:48.180Z,16.87
2018-08-27T06:14:48.173Z,17.02
2018-08-27T06:15:48.166Z,17.00
2018-08-27T06:16:48.160Z,17.07
2018-08-27T06:17:48.154Z,17.20
2018-08-27T06:18:48.176Z,17.12
2018-08-27T06:19:48.136Z,17.15
2018-08-27T06:20:48.127Z,17.07
2018-08-27T06:21:48.175Z,17.14
2018-08-27T06:22:48.126Z,17.06
2018-08-27T06:23:48.112Z,17.18
2018-08-27T06:24:48.100Z,17.22
2018-08-27T06:25:48.090Z,17.30
2018-08-27T06:26:48.082Z,17.28
2018-08-27T06:27:48.083Z,17.25
2018-08-27T06:28:48.068Z,17.27
2018-08-27T06:29:48.066Z,17.21
2018-08-27T06:30:48.057Z,17.25
2018-08-27T06:31:48.046Z,17.30
2018-08-27T06:32:48.043Z,17.43
2018-08-27T06:33:48.035Z,17.45
2018-08-27T06:34:48.026Z,17.53
2018-08-27T06:35:48.020Z,17.58
2018-08-27T06:36:48.108Z,17.65
2018-08-27T06:37:48.037Z,17.71
2018-08-27T06:38:47.994Z,17.76
2018-08-27T06:39:47.988Z,17.80
2018-08-27T06:40:47.981Z,17.92
2018-08-27T06:41:47.975Z,18.02
2018-08-27T06:42:47.965Z,18.14
2018-08-27T06:43:47.959Z,18.13
2018-08-27T06:44:47.954Z,18.10
2018-08-27T06:45:47.945Z,18.16
2018-08-27T06:46:47.938Z,18.17
2018-08-27T06:47:47.931Z,18.25
2018-08-27T06:48:47.932Z,18.26
2018-08-27T06:49:47.919Z,18.29
2018-08-27T06:50:47.910Z,18.28
2018-08-27T06:51:47.903Z,18.36
2018-08-27T06:52:47.898Z,18.41
2018-08-27T06:53:47.889Z,18.49
2018-08-27T06:54:47.883Z,18.47
2018-08-27T06:55:47.877Z,18.53
2018-08-27T06:56:47.888Z,18.62
2018-08-27T06:57:47.867Z,18.65
2018-08-27T06:58:47.861Z,18.97
2018-08-27T06:59:47.853Z,19.09
2018-08-27T07:00:47.848Z,19.05
2018-08-27T07:01:47.839Z,19.09
2018-08-27T07:02:47.834Z,19.09
2018-08-27T07:03:47.831Z,19.13
2018-08-27T07:04:47.816Z,19.09
2018-08-27T07:05:47.811Z,19.16
2018-08-27T07:06:47.828Z,19.17
2018-08-27T07:07:47.978Z,19.30
2018-08-27T07:08:47.793Z,19.30
2018-08-27T07:09:47.798Z,19.31
2018-08-27T07:10:47.792Z,19.27
2018-08-27T07:11:47.838Z,19.16
2018-08-27T07:12:47.767Z,19.17
2018-08-27T07:13:47.761Z,19.13
2018-08-27T07:14:47.757Z,19.16
2018-08-27T07:15:47.757Z,19.01
2018-08-27T07:16:47.751Z,19.02
2018-08-27T07:17:47.738Z,19.17
2018-08-27T07:18:47.734Z,19.16
2018-08-27T07:19:47.733Z,19.28
2018-08-27T07:20:47.725Z,19.20
2018-08-27T07:21:47.721Z,19.30
2018-08-27T07:22:47.714Z,19.28
2018-08-27T07:23:47.707Z,19.27
2018-08-27T07:24:47.700Z,19.32
2018-08-27T07:25:47.691Z,19.34
2018-08-27T07:26:47.685Z,19.30
2018-08-27T07:27:47.682Z,19.43
2018-08-27T07:28:47.679Z,19.46
2018-08-27T07:29:47.685Z,19.52
2018-08-27T07:30:47.665Z,19.60
2018-08-27T07:31:47.658Z,19.61
2018-08-27T07:32:47.647Z,19.61
2018-08-27T07:33:47.641Z,19.65
2018-08-27T07:34:47.701Z,19.76
2018-08-27T07:35:47.634Z,19.79
2018-08-27T07:36:47.640Z,19.75
2018-08-27T07:37:47.624Z,19.67
2018-08-27T07:38:47.614Z,19.60
2018-08-27T07:39:47.610Z,19.57
2018-08-27T07:40:47.604Z,19.67
2018-08-27T07:41:47.600Z,19.70
2018-08-27T07:42:47.601Z,19.65
2018-08-27T07:43:47.587Z,19.67
2018-08-27T07:44:47.585Z,19.75
2018-08-27T07:45:47.580Z,19.76
2018-08-27T07:46:47.570Z,19.86
2018-08-27T07:47:47.570Z,19.85
2018-08-27T07:48:47.574Z,19.92
2018-08-27T07:49:47.550Z,19.87
2018-08-27T07:50:47.635Z,19.89
2018-08-27T07:51:47.548Z,19.90
2018-08-27T07:52:47.542Z,19.82
2018-08-27T07:53:47.533Z,19.85
2018-08-27T07:54:47.539Z,19.92
2018-08-27T07:55:47.520Z,19.90
2018-08-27T07:56:47.515Z,19.98
2018-08-27T07:57:47.507Z,19.97
2018-08-27T07:58:47.509Z,19.94
2018-08-27T07:59:47.501Z,20.00
2018-08-27T08:00:47.492Z,19.90
2018-08-27T08:01:47.495Z,20.04
2018-08-27T08:02:47.489Z,20.04
2018-08-27T08:03:47.481Z,19.98
2018-08-27T08:04:47.591Z,20.23
2018-08-27T08:05:47.488Z,20.31
2018-08-27T08:06:47.509Z,20.54
2018-08-27T08:07:47.457Z,20.63
2018-08-27T08:08:47.452Z,20.57
2018-08-27T08:09:47.448Z,20.73
2018-08-27T08:10:47.445Z,20.78
2018-08-27T08:11:47.440Z,20.85
2018-08-27T08:12:47.428Z,20.87
2018-08-27T08:13:47.423Z,20.96
2018-08-27T08:14:47.425Z,20.87
2018-08-27T08:15:47.419Z,20.93
2018-08-27T08:16:47.411Z,20.91
2018-08-27T08:17:47.409Z,20.98
2018-08-27T08:18:47.398Z,21.00
2018-08-27T08:19:47.396Z,20.96
2018-08-27T08:20:47.388Z,20.97
2018-08-27T08:21:47.391Z,20.96
2018-08-27T08:22:47.452Z,20.87
2018-08-27T08:23:47.384Z,20.90
2018-08-27T08:24:47.377Z,20.97
2018-08-27T08:25:47.400Z,20.96
2018-08-27T08:26:47.362Z,20.91
2018-08-27T08:27:47.357Z,20.94
2018-08-27T08:28:47.353Z,20.97
2018-08-27T08:29:47.347Z,20.97
2018-08-27T08:30:47.341Z,21.11
2018-08-27T08:31:47.338Z,21.09
2018-08-27T08:32:47.339Z,21.05
2018-08-27T08:33:47.328Z,21.03
2018-08-27T08:34:47.333Z,21.19
2018-08-27T08:35:47.320Z,21.19
2018-08-27T08:36:47.313Z,21.22
2018-08-27T08:37:47.310Z,21.24
2018-08-27T08:38:47.306Z,21.27
2018-08-27T08:39:47.354Z,21.26
2018-08-27T08:40:47.303Z,21.31
2018-08-27T08:41:47.294Z,21.33
2018-08-27T08:42:47.289Z,21.33
2018-08-27T08:43:47.291Z,21.42
2018-08-27T08:44:47.279Z,21.46
2018-08-27T08:45:47.278Z,21.52
2018-08-27T08:46:47.270Z,21.58
2018-08-27T08:47:47.266Z,21.40
2018-08-27T08:48:47.266Z,21.53
2018-08-27T08:49:47.256Z,21.46
2018-08-27T08:50:47.259Z,21.51
2018-08-27T08:51:47.254Z,21.55
2018-08-27T08:52:47.246Z,21.45
2018-08-27T08:53:47.238Z,21.42
2018-08-27T08:54:47.238Z,21.49
2018-08-27T08:55:47.231Z,21.49
2018-08-27T08:56:47.229Z,21.42
2018-08-27T08:57:47.225Z,21.38
2018-08-27T08:58:47.218Z,21.33
2018-08-27T08:59:47.219Z,21.30
2018-08-27T09:00:47.213Z,21.28
2018-08-27T09:01:47.283Z,21.30
2018-08-27T09:02:47.203Z,21.30
2018-08-27T09:03:47.198Z,21.28
2018-08-27T09:04:47.195Z,21.12
2018-08-27T09:05:47.191Z,21.22
2018-08-27T09:06:47.191Z,21.15
2018-08-27T09:07:47.181Z,21.24
2018-08-27T09:08:47.187Z,21.34
2018-08-27T09:09:47.171Z,21.42
2018-08-27T09:10:47.169Z,21.56
2018-08-27T09:11:47.163Z,21.68
2018-08-27T09:12:47.161Z,21.79
2018-08-27T09:13:47.153Z,21.94
2018-08-27T09:14:47.152Z,21.89
2018-08-27T09:15:47.147Z,21.85
2018-08-27T09:16:47.203Z,21.85
2018-08-27T09:17:47.136Z,22.01
2018-08-27T09:18:47.134Z,21.98
2018-08-27T09:19:47.133Z,22.19
2018-08-27T09:20:47.129Z,22.24
2018-08-27T09:21:47.122Z,22.48
2018-08-27T09:22:47.118Z,22.35
2018-08-27T09:23:47.120Z,22.36
2018-08-27T09:24:47.109Z,22.49
2018-08-27T09:25:47.109Z,22.63
2018-08-27T09:26:47.104Z,22.61
2018-08-27T09:27:47.100Z,22.54
2018-08-27T09:28:47.097Z,22.72
2018-08-27T09:29:47.087Z,22.70
2018-08-27T09:30:47.090Z,22.67
2018-08-27T09:31:47.083Z,22.67
2018-08-27T09:32:47.078Z,22.52
2018-08-27T09:33:47.074Z,22.48
2018-08-27T09:34:47.076Z,22.56
2018-08-27T09:35:47.068Z,22.70
2018-08-27T09:36:47.065Z,22.84
2018-08-27T09:37:47.057Z,22.99
2018-08-27T09:38:47.059Z,23.00
2018-08-27T09:39:47.050Z,22.94
2018-08-27T09:40:47.048Z,23.06
2018-08-27T09:41:47.048Z,23.16
2018-08-27T09:42:47.047Z,23.21
2018-08-27T09:43:47.042Z,23.22
2018-08-27T09:44:47.033Z,23.19
2018-08-27T09:45:47.097Z,23.19
2018-08-27T09:46:47.046Z,23.22
2018-08-27T09:47:47.023Z,23.23
2018-08-27T09:48:47.020Z,23.35
2018-08-27T09:49:47.016Z,23.22
2018-08-27T09:50:47.012Z,23.23
2018-08-27T09:51:47.015Z,23.31
2018-08-27T09:52:47.019Z,23.31
2018-08-27T09:53:47.001Z,23.37
2018-08-27T09:54:47.000Z,23.22
2018-08-27T09:55:47.002Z,23.32
2018-08-27T09:56:46.992Z,23.34
2018-08-27T09:57:46.988Z,23.34
2018-08-27T09:58:47.065Z,23.32
2018-08-27T09:59:46.989Z,23.35
2018-08-27T10:00:47.056Z,23.38
2018-08-27T10:01:46.980Z,23.52
2018-08-27T10:02:46.978Z,23.54
2018-08-27T10:03:46.976Z,23.45
2018-08-27T10:04:46.968Z,23.60
2018-08-27T10:05:46.967Z,23.60
2018-08-27T10:06:46.960Z,23.67
2018-08-27T10:07:46.957Z,23.75
2018-08-27T10:08:46.955Z,23.77
2018-08-27T10:09:46.965Z,23.64
2018-08-27T10:10:46.947Z,23.74
2018-08-27T10:11:46.944Z,23.74
2018-08-27T10:12:46.945Z,23.75
2018-08-27T10:13:46.943Z,23.81
2018-08-27T10:14:46.988Z,23.79
2018-08-27T10:15:46.935Z,23.78
2018-08-27T10:16:46.933Z,24.04
2018-08-27T10:17:46.929Z,23.97
2018-08-27T10:18:46.929Z,24.02
2018-08-27T10:19:46.923Z,24.00
2018-08-27T10:20:46.917Z,24.11
2018-08-27T10:21:46.927Z,24.15
2018-08-27T10:22:46.985Z,24.21
2018-08-27T10:23:46.909Z,24.21
2018-08-27T10:24:46.904Z,24.14
2018-08-27T10:25:46.901Z,24.19
2018-08-27T10:26:46.943Z,24.21
2018-08-27T10:27:46.902Z,24.18
2018-08-27T10:28:46.893Z,24.15
2018-08-27T10:29:46.916Z,24.16
2018-08-27T10:30:46.891Z,24.30
2018-08-27T10:31:46.891Z,24.30
2018-08-27T10:32:46.887Z,24.36
2018-08-27T10:33:46.904Z,24.51
2018-08-27T10:34:46.881Z,24.52
2018-08-27T10:35:46.874Z,24.56
2018-08-27T10:36:46.871Z,24.70
2018-08-27T10:37:46.873Z,24.75
2018-08-27T10:38:46.866Z,24.89
2018-08-27T10:39:46.868Z,24.92
2018-08-27T10:40:46.862Z,25.04
2018-08-27T10:41:46.860Z,25.07
2018-08-27T10:42:46.877Z,25.01
2018-08-27T10:43:46.856Z,24.89
2018-08-27T10:44:46.852Z,24.93
2018-08-27T10:45:46.849Z,24.86
2018-08-27T10:46:46.856Z,24.98
2018-08-27T10:47:46.844Z,24.94
2018-08-27T10:48:46.844Z,25.04
2018-08-27T10:49:46.841Z,25.04
2018-08-27T10:50:46.846Z,25.04
2018-08-27T10:51:46.836Z,25.09
2018-08-27T10:52:46.838Z,25.11
2018-08-27T10:53:46.830Z,25.20
2018-08-27T10:54:46.834Z,25.19
2018-08-27T10:55:46.829Z,25.23
2018-08-27T10:56:46.826Z,25.24
2018-08-27T10:57:46.822Z,25.24
2018-08-27T10:58:46.824Z,25.35
2018-08-27T10:59:46.826Z,25.35
2018-08-27T11:00:46.815Z,25.35
2018-08-27T11:01:46.821Z,25.34
2018-08-27T11:02:46.811Z,25.44
2018-08-27T11:03:46.809Z,25.48
2018-08-27T11:04:46.810Z,25.45
2018-08-27T11:05:46.805Z,25.56
2018-08-27T11:06:46.813Z,25.64
2018-08-27T11:07:46.804Z,25.69
2018-08-27T11:08:46.801Z,25.72
2018-08-27T11:09:46.801Z,25.71
2018-08-27T11:10:46.899Z,25.71
2018-08-27T11:11:46.804Z,25.85
2018-08-27T11:12:46.799Z,25.85
2018-08-27T11:13:46.792Z,25.98
2018-08-27T11:14:46.796Z,26.01
2018-08-27T11:15:46.796Z,26.04
2018-08-27T11:16:46.791Z,26.06
2018-08-27T11:17:46.787Z,26.11
2018-08-27T11:18:46.791Z,26.19
2018-08-27T11:19:46.816Z,26.19
2018-08-27T11:20:46.783Z,26.16
2018-08-27T11:21:46.789Z,26.31
2018-08-27T11:22:46.787Z,26.21
2018-08-27T11:23:46.782Z,26.38
2018-08-27T11:24:46.784Z,26.47
2018-08-27T11:25:46.775Z,26.51
2018-08-27T11:26:46.883Z,26.60
2018-08-27T11:27:46.774Z,26.60
2018-08-27T11:28:46.772Z,26.54
2018-08-27T11:29:46.777Z,26.53
2018-08-27T11:30:46.770Z,26.60
2018-08-27T11:31:46.775Z,26.61
2018-08-27T11:32:46.818Z,26.79
2018-08-27T11:33:46.769Z,26.76
2018-08-27T11:34:46.772Z,26.93
2018-08-27T11:35:46.768Z,26.84
2018-08-27T11:36:46.767Z,26.97
2018-08-27T11:37:46.769Z,27.05
2018-08-27T11:38:46.763Z,26.91
2018-08-27T11:39:46.762Z,26.83
2018-08-27T11:40:46.761Z,26.61
2018-08-27T11:41:46.759Z,26.51
2018-08-27T11:42:46.764Z,26.64
2018-08-27T11:43:46.766Z,26.69
2018-08-27T11:44:46.762Z,26.78
2018-08-27T11:45:46.757Z,26.87
2018-08-27T11:46:46.755Z,26.93
2018-08-27T11:47:46.755Z,26.91
2018-08-27T11:48:46.755Z,27.06
2018-08-27T11:49:46.752Z,27.09
2018-08-27T11:50:46.948Z,27.09
2018-08-27T11:51:46.758Z,27.21
2018-08-27T11:52:46.754Z,27.35
2018-08-27T11:53:46.749Z,27.45
2018-08-27T11:54:46.760Z,27.30
2018-08-27T11:55:46.749Z,27.31
2018-08-27T11:56:46.748Z,27.25
2018-08-27T11:57:46.748Z,27.23
2018-08-27T11:58:46.834Z,27.13
2018-08-27T11:59:46.747Z,27.16
2018-08-27T12:00:46.746Z,27.18
2018-08-27T12:01:46.746Z,27.15
2018-08-27T12:02:46.745Z,27.12
2018-08-27T12:03:46.746Z,27.01
2018-08-27T12:04:46.742Z,26.88
2018-08-27T12:05:46.748Z,26.81
2018-08-27T12:06:46.748Z,26.66
2018-08-27T12:07:46.744Z,26.60
2018-08-27T12:08:46.749Z,26.59
2018-08-27T12:09:46.748Z,26.57
2018-08-27T12:10:46.743Z,26.49
2018-08-27T12:11:46.745Z,26.59
2018-08-27T12:12:46.748Z,26.59
2018-08-27T12:13:46.741Z,26.56
2018-08-27T12:14:46.740Z,26.53
2018-08-27T12:15:46.745Z,26.54
2018-08-27T12:16:46.748Z,26.47
2018-08-27T12:17:46.740Z,26.42
2018-08-27T12:18:46.737Z,26.50
2018-08-27T12:19:46.737Z,26.53
2018-08-27T12:20:46.734Z,26.49
2018-08-27T12:21:46.734Z,26.50
2018-08-27T12:22:46.733Z,26.39
2018-08-27T12:23:46.799Z,26.49
2018-08-27T12:24:46.731Z,26.41
2018-08-27T12:25:46.736Z,26.38
2018-08-27T12:26:46.735Z,26.29
2018-08-27T12:27:46.731Z,26.38
2018-08-27T12:28:46.726Z,26.35
2018-08-27T12:29:46.728Z,26.49
2018-08-27T12:30:46.751Z,26.47
2018-08-27T12:31:46.726Z,26.50
2018-08-27T12:32:46.723Z,26.51
2018-08-27T12:33:46.729Z,26.53
2018-08-27T12:34:46.728Z,26.51
2018-08-27T12:35:46.722Z,26.57
2018-08-27T12:36:46.722Z,26.56
2018-08-27T12:37:46.736Z,26.50
2018-08-27T12:38:46.722Z,26.51
2018-08-27T12:39:46.719Z,26.51
2018-08-27T12:40:46.829Z,26.49
2018-08-27T12:41:46.721Z,26.50
2018-08-27T12:42:46.721Z,26.61
2018-08-27T12:43:46.733Z,26.51
2018-08-27T12:44:46.715Z,26.53
2018-08-27T12:45:46.715Z,26.53
2018-08-27T12:46:46.714Z,26.50
2018-08-27T12:47:46.716Z,26.34
2018-08-27T12:48:46.716Z,26.38
2018-08-27T12:49:46.716Z,26.32
2018-08-27T12:50:46.718Z,26.31
2018-08-27T12:51:46.708Z,26.20
2018-08-27T12:52:46.708Z,26.20